Time;durP1;ratioP1;P1;durP2;ratioP2;P2;SDS_P1;SDS_P2;PMS_P1;PMS_P2;Temp;Humidity;BMP_temperature;BMP_pressure;BME280_temperature;BME280_humidity;BME280_pressure;Samples;Min_cycle;Max_cycle;Signal;HPM_P1;HPM_P2
2022/05/24 00:01:39;;;;;;;34.67;32.10;;;;;;;14.34;100.00;100600.16;5128198;28;20047;-85
2022/05/24 00:04:07;;;;;;;38.75;36.10;;;;;;;14.34;100.00;100610.84;5134310;28;20380;-87
2022/05/24 00:06:34;;;;;;;37.45;34.97;;;;;;;14.35;100.00;100607.13;5134315;28;20052;-84
2022/05/24 00:09:07;;;;;;;38.05;35.45;;;;;;;14.34;100.00;100604.66;5122582;28;20057;-83
2022/05/24 00:11:36;;;;;;;36.00;33.28;;;;;;;14.29;100.00;100604.56;5126229;28;20506;-83
2022/05/24 00:14:04;;;;;;;33.15;30.83;;;;;;;14.10;100.00;100603.84;5125889;28;20062;-83
2022/05/24 00:16:31;;;;;;;35.30;32.78;;;;;;;14.16;100.00;100603.75;5123594;28;20076;-84
2022/05/24 00:18:58;;;;;;;33.45;30.85;;;;;;;14.06;100.00;100606.16;5131738;28;20052;-83
2022/05/24 00:21:29;;;;;;;32.92;30.23;;;;;;;14.04;100.00;100608.28;5122194;28;20027;-83
2022/05/24 00:23:56;;;;;;;33.00;30.63;;;;;;;13.90;100.00;100602.34;5128515;28;20441;-83
2022/05/24 00:26:29;;;;;;;32.13;29.52;;;;;;;13.78;100.00;100606.03;5127992;28;20043;-84
2022/05/24 00:28:58;;;;;;;30.15;27.90;;;;;;;13.87;100.00;100608.13;5118475;28;20086;-82
2022/05/24 00:31:26;;;;;;;30.60;28.10;;;;;;;13.86;100.00;100598.50;5131154;28;20377;-82
2022/05/24 00:33:55;;;;;;;32.22;29.92;;;;;;;13.92;100.00;100602.94;5120672;28;20053;-84
2022/05/24 00:36:23;;;;;;;31.23;29.00;;;;;;;13.78;100.00;100606.03;5134408;28;20031;-83
2022/05/24 00:38:51;;;;;;;30.65;28.55;;;;;;;13.85;100.00;100606.72;5121970;28;20544;-84
2022/05/24 00:41:26;;;;;;;35.00;32.00;;;;;;;13.75;100.00;100609.97;5120278;28;20451;-83
2022/05/24 00:43:58;;;;;;;37.13;34.17;;;;;;;13.69;100.00;100608.22;5122003;28;20048;-83
2022/05/24 00:46:27;;;;;;;40.53;37.63;;;;;;;13.68;100.00;100598.59;5123702;28;20040;-85
2022/05/24 00:48:58;;;;;;;38.33;35.53;;;;;;;13.55;100.00;100598.78;5125342;28;20028;-83
2022/05/24 00:51:35;;;;;;;36.65;34.03;;;;;;;13.54;100.00;100595.31;5123004;28;20529;-85
2022/05/24 00:54:07;;;;;;;37.33;34.78;;;;;;;13.44;100.00;100600.38;5124262;28;20044;-83
2022/05/24 00:56:48;;;;;;;36.97;34.38;;;;;;;13.31;100.00;100604.03;5124309;28;20111;-85
2022/05/24 00:59:22;;;;;;;37.42;34.83;;;;;;;13.43;100.00;100596.06;5129913;28;20023;-84
2022/05/24 01:01:49;;;;;;;37.75;35.15;;;;;;;13.31;100.00;100603.22;5129815;28;20055;-82
2022/05/24 01:04:19;;;;;;;44.92;41.03;;;;;;;13.58;100.00;100590.31;5127509;28;20035;-83
2022/05/24 01:06:47;;;;;;;37.45;34.63;;;;;;;13.60;100.00;100602.41;5131245;28;20040;-83
2022/05/24 01:09:21;;;;;;;35.60;33.05;;;;;;;13.69;100.00;100603.69;5121620;28;20056;-84
2022/05/24 01:11:51;;;;;;;33.72;31.23;;;;;;;13.47;100.00;100595.41;5114444;28;20128;-83
2022/05/24 01:14:23;;;;;;;34.08;31.40;;;;;;;13.12;100.00;100600.56;5126976;28;20479;-83
2022/05/24 01:16:50;;;;;;;33.28;30.98;;;;;;;13.35;100.00;100599.09;5123038;28;20507;-84
2022/05/24 01:19:25;;;;;;;35.42;32.92;;;;;;;13.44;100.00;100600.38;5125041;28;20051;-83
2022/05/24 01:21:57;;;;;;;35.85;33.40;;;;;;;13.50;100.00;100596.81;5122584;28;20043;-82
2022/05/24 01:24:28;;;;;;;;;;;;;;;13.64;100.00;100600.88;5122511;28;20430;-84
2022/05/24 01:27:02;;;;;;;33.90;31.58;;;;;;;13.60;100.00;100602.41;5127537;28;19938;-82
2022/05/24 01:29:30;;;;;;;34.03;31.52;;;;;;;13.78;100.00;100601.50;5120817;28;20476;-83
2022/05/24 01:37:30;;;;;;;35.00;32.50;;;;;;;13.51;100.00;100593.91;5119892;28;20053;-83
2022/05/24 01:40:00;;;;;;;35.75;32.83;;;;;;;13.40;100.00;100600.00;5118768;28;20127;-83
2022/05/24 01:42:29;;;;;;;36.10;33.42;;;;;;;13.14;100.00;100606.50;5123258;28;20073;-83
2022/05/24 01:45:03;;;;;;;36.42;33.88;;;;;;;13.54;100.00;100600.63;5126558;28;20148;-82
2022/05/24 01:47:31;;;;;;;37.35;34.75;;;;;;;13.63;100.00;100598.47;5125343;28;20050;-86
2022/05/24 01:50:03;;;;;;;41.58;38.88;;;;;;;13.55;100.00;100598.78;5125411;28;20051;-84
2022/05/24 01:52:40;;;;;;;39.33;36.53;;;;;;;13.46;100.00;100600.94;5126199;28;20109;-84
2022/05/24 01:55:13;;;;;;;36.30;33.75;;;;;;;13.54;100.00;100599.84;5125604;28;20297;-84
2022/05/24 01:57:53;;;;;;;32.83;30.33;;;;;;;13.50;100.00;100596.81;5116685;28;20403;-85
2022/05/24 02:02:54;;;;;;;39.35;36.65;;;;;;;13.47;100.00;100607.94;5073124;28;20056;-81
2022/05/24 02:05:34;;;;;;;40.60;37.88;;;;;;;13.44;100.00;100605.72;5067095;28;20045;-82
2022/05/24 02:08:07;;;;;;;37.28;34.58;;;;;;;13.22;100.00;100614.19;5074898;28;20045;-81
2022/05/24 02:10:36;;;;;;;;;;;;;;;13.43;100.00;100612.09;5080560;28;20059;-82
2022/05/24 02:13:05;;;;;;;41.53;38.30;;;;;;;13.39;100.00;100603.72;5075997;28;19920;-82
2022/05/24 02:15:36;;;;;;;37.40;34.63;;;;;;;13.35;100.00;100605.22;5087958;28;20129;-83
2022/05/24 02:18:11;;;;;;;39.05;36.15;;;;;;;13.57;100.00;100616.19;5080716;28;20106;-81
2022/05/24 02:20:40;;;;;;;40.83;37.92;;;;;;;13.32;100.00;100615.53;5079389;28;20447;-82
2022/05/24 02:23:07;;;;;;;41.28;38.05;;;;;;;13.37;100.00;100615.66;5082557;28;20049;-82
2022/05/24 02:25:39;;;;;;;38.58;35.75;;;;;;;12.98;100.00;100623.94;5081854;28;20476;-82
2022/05/24 02:28:10;;;;;;;36.23;33.53;;;;;;;12.88;100.00;100623.63;5079979;28;20044;-81
2022/05/24 02:30:42;;;;;;;39.40;36.35;;;;;;;13.00;100.00;100626.38;5082680;28;20521;-81
2022/05/24 02:33:10;;;;;;;;;;;;;;;13.18;100.00;100623.66;5089542;28;20056;-81
2022/05/24 02:35:37;;;;;;;34.28;31.65;;;;;;;13.05;100.00;100631.84;5082302;28;19932;-81
2022/05/24 02:38:05;;;;;;;37.20;34.40;;;;;;;12.99;100.00;100630.88;5079360;28;20086;-81
2022/05/24 02:43:18;;;;;;;32.67;30.25;;;;;;;13.20;100.00;100629.59;5081489;28;20075;-83
2022/05/24 02:45:45;;;;;;;33.20;30.85;;;;;;;13.00;100.00;100637.03;5082398;28;20052;-82
2022/05/24 02:48:12;;;;;;;30.92;28.88;;;;;;;12.93;100.00;100637.13;5080062;28;20066;-82
2022/05/24 02:50:40;;;;;;;31.95;29.75;;;;;;;13.07;100.00;100630.59;5088226;28;20079;-82
2022/05/24 02:53:07;;;;;;;34.03;31.63;;;;;;;13.00;100.00;100629.84;5083779;28;20048;-82
2022/05/24 02:55:40;;;;;;;32.28;29.95;;;;;;;12.93;100.00;100623.78;5092254;28;20118;-82
2022/05/24 02:58:07;;;;;;;31.88;29.77;;;;;;;12.88;100.00;100622.81;5089347;28;20077;-81
2022/05/24 03:00:36;;;;;;;31.35;28.83;;;;;;;12.93;100.00;100621.13;5085903;28;20048;-81
2022/05/24 03:03:04;;;;;;;30.90;28.73;;;;;;;12.86;100.00;100624.88;5088716;28;20052;-81
2022/05/24 03:05:31;;;;;;;32.95;30.65;;;;;;;12.77;100.00;100622.53;5086432;28;20416;-81
2022/05/24 03:10:45;;;;;;;31.70;29.40;;;;;;;12.92;100.00;100635.50;5088507;28;20059;-82
2022/05/24 03:16:09;;;;;;;31.85;29.30;;;;;;;12.87;100.00;100627.34;5086792;28;20047;-83
2022/05/24 03:18:36;;;;;;;30.77;28.58;;;;;;;13.02;100.00;100632.28;5082207;28;20048;-83
2022/05/24 03:21:04;;;;;;;31.05;28.95;;;;;;;12.99;100.00;100638.06;5085649;28;20060;-83
2022/05/24 03:23:30;;;;;;;28.90;26.90;;;;;;;12.89;100.00;100635.09;5081250;28;20044;-83
2022/05/24 03:25:57;;;;;;;31.33;28.83;;;;;;;12.78;100.00;100637.50;5079380;28;20048;-83
2022/05/24 03:28:27;;;;;;;32.17;30.05;;;;;;;13.13;100.00;100638.72;5084328;28;20078;-83
2022/05/24 03:30:54;;;;;;;33.85;31.25;;;;;;;13.00;100.00;100634.38;5069376;28;20146;-83
2022/05/24 03:33:26;;;;;;;33.78;31.30;;;;;;;12.98;100.00;100639.94;5086978;28;20130;-83
2022/05/24 03:35:55;;;;;;;35.35;32.88;;;;;;;12.97;100.00;100634.81;5065679;28;20460;-83
2022/05/24 03:38:23;;;;;;;36.17;33.78;;;;;;;13.02;100.00;100630.44;5081438;28;20052;-84
2022/05/24 03:40:50;;;;;;;30.15;28.35;;;;;;;14.12;100.00;100633.81;5072210;28;20052;-83
2022/05/24 03:43:17;;;;;;;32.58;30.23;;;;;;;13.25;100.00;100629.78;5067167;28;20045;-83
2022/05/24 03:45:47;;;;;;;31.75;29.70;;;;;;;14.82;100.00;100639.13;5074188;28;20052;-84
2022/05/24 03:48:16;;;;;;;32.65;30.65;;;;;;;13.76;100.00;100627.59;5072047;28;20049;-84
2022/05/24 03:50:58;;;;;;;29.08;27.15;;;;;;;14.57;100.00;100636.75;5066155;28;20485;-84
2022/05/24 03:53:42;;;;;;;28.13;26.08;;;;;;;14.02;100.00;100641.59;5058723;28;20065;-83
2022/05/24 03:56:18;;;;;;;33.42;31.27;;;;;;;13.77;100.00;100636.41;5076051;28;20048;-85
2022/05/24 03:58:54;;;;;;;35.28;33.17;;;;;;;13.65;100.00;100647.09;5076047;28;20472;-83
2022/05/24 04:01:21;;;;;;;31.48;29.60;;;;;;;13.80;100.00;100643.97;5057112;28;20138;-83
2022/05/24 04:03:58;;;;;;;39.88;37.60;;;;;;;13.84;100.00;100639.81;5077469;28;20545;-83
2022/05/24 04:06:35;;;;;;;38.85;36.45;;;;;;;14.11;100.00;100637.53;5076548;28;20053;-85
2022/05/24 04:09:22;;;;;;;36.97;34.40;;;;;;;14.02;100.00;100638.94;5075869;28;20109;-83
2022/05/24 04:11:54;;;;;;;31.13;28.85;;;;;;;14.02;100.00;100628.25;5075767;28;20078;-83
2022/05/24 04:14:21;;;;;;;30.40;28.25;;;;;;;14.17;100.00;100629.41;5075298;28;20036;-83
2022/05/24 04:16:49;;;;;;;32.42;30.63;;;;;;;14.23;100.00;100627.69;5075544;28;20115;-81
2022/05/24 04:19:16;;;;;;;33.28;31.30;;;;;;;14.55;100.00;100632.66;5069409;28;20044;-82
2022/05/24 04:21:49;;;;;;;32.63;30.60;;;;;;;14.58;100.00;100627.69;5070443;28;20044;-83
2022/05/24 04:24:17;;;;;;;31.65;29.52;;;;;;;14.57;100.00;100625.25;5067045;28;20109;-81
2022/05/24 04:26:46;;;;;;;32.05;30.25;;;;;;;14.65;100.00;100624.91;5070006;28;20064;-81
2022/05/24 04:29:15;;;;;;;31.70;29.83;;;;;;;14.92;100.00;100635.03;5073200;28;20114;-82
2022/05/24 04:31:50;;;;;;;32.15;29.77;;;;;;;14.74;100.00;100638.72;5067954;28;20056;-81
2022/05/24 04:34:23;;;;;;;31.75;29.90;;;;;;;14.84;100.00;100636.25;5065942;28;20447;-83
2022/05/24 04:36:52;;;;;;;31.45;29.55;;;;;;;14.95;100.00;100634.56;5063327;28;20086;-83
2022/05/24 04:39:19;;;;;;;32.13;30.27;;;;;;;15.02;100.00;100635.28;5073948;28;20044;-82
2022/05/24 04:44:35;;;;;;;31.45;28.98;;;;;;;15.39;100.00;100629.56;5073426;28;20388;-84
2022/05/24 04:47:08;;;;;;;29.75;27.65;;;;;;;15.40;100.00;100636.50;5065423;28;20103;-83
2022/05/24 04:49:37;;;;;;;27.02;25.50;;;;;;;15.89;100.00;100626.97;5061917;28;20044;-83
2022/05/24 04:52:10;;;;;;;27.15;25.52;;;;;;;15.78;100.00;100634.03;5064710;28;20055;-83
2022/05/24 04:54:41;;;;;;;29.80;26.90;;;;;;;15.85;100.00;100638.41;5066034;28;20052;-83
2022/05/24 04:57:12;;;;;;;28.80;26.58;;;;;;;16.30;100.00;100629.47;5067361;28;20294;-83
2022/05/24 04:59:48;;;;;;;25.42;23.92;;;;;;;16.50;100.00;100632.44;5067163;28;20053;-83
2022/05/24 05:02:23;;;;;;;26.83;25.13;;;;;;;16.35;100.00;100630.34;5063835;28;20117;-84
2022/05/24 05:04:50;;;;;;;25.27;23.70;;;;;;;16.45;100.00;100635.03;5066872;28;20101;-83
2022/05/24 05:07:20;;;;;;;25.42;24.02;;;;;;;16.60;100.00;100631.75;5065198;28;20114;-82
2022/05/24 05:09:50;;;;;;;25.15;23.33;;;;;;;16.70;100.00;100631.88;5062751;28;20132;-83
2022/05/24 05:12:17;;;;;;;25.20;23.60;;;;;;;17.20;100.00;100633.59;5066639;28;20127;-82
2022/05/24 05:14:44;;;;;;;25.33;23.92;;;;;;;16.93;100.00;100638.94;5066983;28;20057;-82
2022/05/24 05:17:16;;;;;;;24.88;23.27;;;;;;;17.37;100.00;100639.69;5066013;28;20041;-82
2022/05/24 05:19:52;;;;;;;25.15;23.75;;;;;;;17.26;100.00;100637.97;5069020;28;20492;-82
2022/05/24 05:22:20;;;;;;;24.13;22.83;;;;;;;17.28;100.00;100640.41;5063691;28;20465;-82
2022/05/24 05:24:48;;;;;;;24.48;23.08;;;;;;;17.37;100.00;100637.03;5069660;28;20052;-83
2022/05/24 05:27:15;;;;;;;24.55;23.15;;;;;;;17.47;100.00;100646.25;5068420;28;20109;-83
2022/05/24 05:32:33;;;;;;;22.63;21.33;;;;;;;17.64;100.00;100644.28;5072568;28;20070;-83
2022/05/24 05:35:01;;;;;;;22.73;21.48;;;;;;;18.05;100.00;100634.69;5079053;28;20041;-84
2022/05/24 05:37:31;;;;;;;23.77;22.23;;;;;;;18.14;100.00;100645.78;5071645;28;20089;-82
2022/05/24 05:40:03;;;;;;;24.50;23.00;;;;;;;18.35;100.00;100643.22;5076116;28;20052;-85
2022/05/24 05:42:32;;;;;;;24.77;23.02;;;;;;;18.40;100.00;100649.47;5076417;28;20449;-85
2022/05/24 05:45:19;;;;;;;24.55;23.33;;;;;;;18.54;100.00;100647.91;5080571;28;20572;-85
2022/05/24 05:47:57;;;;;;;25.55;24.25;;;;;;;18.75;100.00;100656.13;5077817;28;20083;-85
2022/05/24 05:50:25;;;;;;;23.70;22.20;;;;;;;18.70;100.00;100656.88;5066328;28;20071;-86
2022/05/24 05:53:03;;;;;;;23.00;21.50;;;;;;;19.03;100.00;100656.78;5078968;28;20045;-85
2022/05/24 05:55:32;;;;;;;23.25;21.92;;;;;;;19.10;100.00;100652.78;5076815;28;20465;-85
2022/05/24 06:01:28;;;;;;;23.23;21.70;;;;;;;18.73;100.00;100652.91;5071742;28;20052;-86
2022/05/24 06:04:00;;;;;;;22.75;21.35;;;;;;;19.30;100.00;100651.22;5059084;28;20048;-85
2022/05/24 06:06:32;;;;;;;22.20;21.00;;;;;;;19.52;100.00;100659.91;5075333;28;20443;-87
2022/05/24 06:09:27;;;;;;;23.80;22.38;;;;;;;19.92;100.00;100661.03;5080096;28;20049;-87
2022/05/24 06:11:55;;;;;;;24.40;22.77;;;;;;;20.12;100.00;100666.44;5078867;28;20032;-87
2022/05/24 06:14:24;;;;;;;23.73;22.08;;;;;;;19.55;100.00;100663.94;5081187;28;20045;-87
2022/05/24 06:16:51;;;;;;;24.58;22.80;;;;;;;19.65;100.00;100663.97;5080177;28;20065;-87
2022/05/24 06:19:18;;;;;;;23.73;22.08;;;;;;;19.42;100.00;100682.19;5077222;28;20060;-86
2022/05/24 06:21:45;;;;;;;23.15;21.65;;;;;;;20.01;100.00;100677.50;5081154;28;20060;-86
2022/05/24 06:24:14;;;;;;;23.20;21.80;;;;;;;20.32;100.00;100670.97;5078149;28;20040;-87
2022/05/24 06:26:41;;;;;;;22.80;21.40;;;;;;;20.15;100.00;100665.06;5084681;28;20063;-87
2022/05/24 06:31:50;;;;;;;24.08;22.58;;;;;;;20.01;100.00;100667.50;5086446;28;20064;-87
2022/05/24 06:34:17;;;;;;;25.27;23.33;;;;;;;20.27;100.00;100671.00;5087525;28;20052;-86
2022/05/24 06:36:56;;;;;;;24.25;22.45;;;;;;;20.62;100.00;100663.94;5075074;28;20044;-85
2022/05/24 06:39:35;;;;;;;34.97;32.55;;;;;;;20.78;100.00;100659.31;5080198;28;20044;-87
2022/05/24 06:42:05;;;;;;;31.00;29.30;;;;;;;21.32;100.00;100663.91;5081218;28;20063;-86
2022/05/24 06:44:52;;;;;;;30.40;28.80;;;;;;;20.86;100.00;100656.03;5081340;28;20074;-85
2022/05/24 06:47:20;;;;;;;32.55;30.60;;;;;;;21.10;100.00;100642.72;5081182;28;20117;-86
2022/05/24 06:49:47;;;;;;;33.58;31.67;;;;;;;21.01;100.00;100652.47;5079898;28;20049;-87
2022/05/24 06:52:20;;;;;;;33.17;31.13;;;;;;;21.23;100.00;100652.88;5063516;28;20049;-86
2022/05/24 06:54:49;;;;;;;35.13;32.80;;;;;;;21.14;100.00;100659.97;5079771;28;20045;-86
2022/05/24 06:57:21;;;;;;;35.10;33.35;;;;;;;21.62;100.00;100654.84;5078554;28;20049;-87
2022/05/24 07:03:14;;;;;;;33.08;31.20;;;;;;;21.27;100.00;100648.56;5082640;28;20103;-87
2022/05/24 07:05:42;;;;;;;34.97;33.10;;;;;;;21.34;100.00;100650.16;5079691;28;20056;-86
2022/05/24 07:08:17;;;;;;;35.78;33.88;;;;;;;21.64;100.00;100644.56;5081007;28;20113;-85
2022/05/24 07:10:52;;;;;;;35.55;33.70;;;;;;;22.05;100.00;100648.84;5081301;28;20074;-85
2022/05/24 07:13:20;;;;;;;25.95;24.55;;;;;;;21.54;100.00;100639.22;5062808;28;20068;-85
2022/05/24 07:15:50;;;;;;;25.23;23.70;;;;;;;21.78;100.00;100639.31;5070758;28;20052;-86
2022/05/24 07:18:18;;;;;;;26.05;24.50;;;;;;;22.13;100.00;100645.53;5084013;28;20071;-85
2022/05/24 07:20:47;;;;;;;27.30;25.70;;;;;;;22.00;100.00;100644.28;5079958;28;20055;-85
2022/05/24 07:23:40;;;;;;;27.38;25.63;;;;;;;22.20;96.17;100646.03;5084056;28;20096;-87
2022/05/24 07:26:26;;;;;;;29.23;27.52;;;;;;;22.77;100.00;100646.22;5082101;28;20052;-84
2022/05/24 07:28:56;;;;;;;28.27;26.75;;;;;;;22.54;95.04;100639.72;5077007;28;20051;-86
2022/05/24 07:31:25;;;;;;;27.75;26.33;;;;;;;22.61;95.73;100645.59;5080595;28;20098;-85
2022/05/24 07:34:01;;;;;;;26.50;24.90;;;;;;;22.44;93.90;100653.38;5080434;28;20057;-83
2022/05/24 07:36:31;;;;;;;27.17;25.17;;;;;;;22.39;96.25;100652.34;5083745;28;20055;-83
2022/05/24 07:38:59;;;;;;;26.77;25.17;;;;;;;22.63;91.06;100651.53;5079848;28;20133;-83
2022/05/24 07:46:52;;;;;;;30.48;28.88;;;;;;;22.06;95.02;100637.75;5030217;28;20056;-81
2022/05/24 07:49:19;;;;;;;29.50;27.75;;;;;;;22.50;91.09;100633.28;5070914;28;20037;-81
2022/05/24 07:51:48;;;;;;;26.13;24.60;;;;;;;22.94;93.33;100634.94;5077271;28;20052;-80
2022/05/24 07:54:15;;;;;;;25.65;24.17;;;;;;;23.18;90.35;100633.00;5078875;28;20527;-83
2022/05/24 07:56:43;;;;;;;26.80;25.00;;;;;;;23.08;78.03;100635.84;5087572;28;20049;-82
2022/05/24 07:59:19;;;;;;;26.50;25.00;;;;;;;22.97;85.30;100627.06;5086393;28;20511;-84
2022/05/24 08:01:46;;;;;;;26.40;24.80;;;;;;;23.38;88.40;100636.53;5077223;28;20122;-82
2022/05/24 08:04:17;;;;;;;31.38;28.95;;;;;;;23.42;86.79;100640.25;5063449;28;20110;-84
2022/05/24 08:06:44;;;;;;;25.38;23.83;;;;;;;23.79;86.97;100639.44;5082998;28;20053;-82
2022/05/24 08:09:11;;;;;;;26.10;24.55;;;;;;;23.69;91.80;100634.13;5087523;28;20071;-82
2022/05/24 08:11:47;;;;;;;27.73;26.23;;;;;;;23.35;79.18;100624.34;5076322;28;20059;-82
2022/05/24 08:14:14;;;;;;;26.30;24.52;;;;;;;24.34;83.35;100631.41;5080988;28;20056;-83
2022/05/24 08:16:43;;;;;;;26.55;24.73;;;;;;;24.23;76.41;100624.56;5074762;28;20041;-82
2022/05/24 08:19:10;;;;;;;26.08;24.38;;;;;;;24.10;72.06;100628.88;5075236;28;20048;-83
2022/05/24 08:21:45;;;;;;;26.65;24.95;;;;;;;24.52;70.25;100618.09;5084734;28;20082;-82
2022/05/24 08:24:12;;;;;;;26.27;24.58;;;;;;;24.19;68.55;100627.06;5079890;28;20055;-82
2022/05/24 08:26:47;;;;;;;29.10;27.08;;;;;;;24.05;68.45;100625.44;5085987;28;20048;-82
2022/05/24 08:29:20;;;;;;;27.38;25.67;;;;;;;24.25;67.24;100635.13;5071967;28;20052;-82
2022/05/24 08:31:54;;;;;;;28.27;26.52;;;;;;;24.38;66.99;100632.41;5076421;28;20048;-83
2022/05/24 08:34:21;;;;;;;27.13;25.48;;;;;;;24.45;69.15;100622.03;5085679;28;20109;-83
2022/05/24 08:36:50;;;;;;;26.42;24.83;;;;;;;24.76;68.50;100628.75;5083519;28;20117;-81
2022/05/24 08:39:16;;;;;;;27.35;25.38;;;;;;;24.60;62.69;100634.50;5083426;28;20045;-84
2022/05/24 08:42:03;;;;;;;27.63;25.90;;;;;;;24.34;72.26;100628.72;5086993;28;20054;-83
2022/05/24 08:50:15;;;;;;;27.60;26.20;;;;;;;25.42;70.56;100631.94;5073146;28;20044;-83
2022/05/24 08:52:49;;;;;;;29.42;27.83;;;;;;;25.34;72.63;100636.22;5085540;28;20048;-81
2022/05/24 08:55:17;;;;;;;256.90;173.95;;;;;;;24.58;68.20;100633.19;5080006;28;20078;-83
2022/05/24 08:57:55;;;;;;;33.08;30.42;;;;;;;25.51;74.95;100644.50;5083388;28;20044;-84
2022/05/24 09:00:26;;;;;;;27.40;25.63;;;;;;;25.26;65.31;100639.66;5069171;28;20080;-83
2022/05/24 09:02:53;;;;;;;25.60;24.02;;;;;;;25.52;68.98;100640.66;5082985;28;20048;-83
2022/05/24 09:05:30;;;;;;;26.15;24.55;;;;;;;25.52;68.75;100640.66;5086870;28;20059;-84
2022/05/24 09:08:19;;;;;;;27.52;25.70;;;;;;;25.74;68.59;100634.41;5086689;28;20103;-83
2022/05/24 09:11:04;;;;;;;34.28;31.38;;;;;;;25.50;72.13;100634.72;5083677;28;20044;-83
2022/05/24 09:14:05;;;;;;;26.30;24.77;;;;;;;25.44;73.15;100625.09;5075171;28;20102;-83
2022/05/24 09:16:37;;;;;;;28.02;26.38;;;;;;;25.77;65.29;100628.38;5055530;28;20102;-83
2022/05/24 09:19:18;;;;;;;212.02;144.02;;;;;;;25.72;64.06;100627.69;5084915;28;20056;-82
2022/05/24 09:21:47;;;;;;;512.33;356.60;;;;;;;25.33;63.74;100627.25;5087839;28;20053;-82
2022/05/24 09:24:27;;;;;;;51.00;46.28;;;;;;;25.46;63.62;100622.88;5077633;28;20083;-82
2022/05/24 09:27:28;;;;;;;350.33;238.02;;;;;;;25.01;63.73;100625.47;5077176;28;20493;-82
2022/05/24 09:30:08;;;;;;;30.02;27.83;;;;;;;24.74;59.70;100633.66;5078425;28;20058;-83
2022/05/24 09:32:44;;;;;;;38.28;35.15;;;;;;;26.24;62.94;100628.84;5078873;28;20044;-83
2022/05/24 09:35:30;;;;;;;32.63;30.52;;;;;;;25.98;62.95;100625.97;5076084;28;20476;-84
2022/05/24 09:38:16;;;;;;;41.50;38.50;;;;;;;26.24;60.80;100628.03;5077730;28;20484;-84
2022/05/24 09:40:54;;;;;;;31.50;29.50;;;;;;;26.83;63.88;100636.75;5076140;28;20055;-84
2022/05/24 09:43:27;;;;;;;29.48;27.77;;;;;;;26.55;55.95;100635.38;5076887;28;20126;-83
2022/05/24 09:46:09;;;;;;;30.77;28.98;;;;;;;27.04;57.16;100626.03;5067221;28;20045;-82
2022/05/24 09:48:50;;;;;;;30.27;28.43;;;;;;;27.14;56.37;100631.22;5057660;28;20052;-83
2022/05/24 09:51:25;;;;;;;28.15;26.45;;;;;;;27.88;55.58;100628.63;5074118;28;20051;-83
2022/05/24 09:53:55;;;;;;;40.85;37.58;;;;;;;27.58;58.66;100631.22;5073830;28;20045;-83
2022/05/24 09:56:33;;;;;;;31.05;29.05;;;;;;;27.58;52.13;100625.75;5076657;28;20110;-83
2022/05/24 09:59:02;;;;;;;35.80;32.85;;;;;;;27.51;56.20;100628.19;5068230;28;20127;-83
2022/05/24 10:01:36;;;;;;;29.00;26.83;;;;;;;26.13;56.78;100637.56;5065625;28;20110;-82
2022/05/24 10:04:17;;;;;;;30.08;27.98;;;;;;;27.46;56.62;100631.06;5083139;28;20198;-85
2022/05/24 10:06:59;;;;;;;29.20;27.17;;;;;;;26.77;58.80;100637.22;5082864;28;20052;-84
2022/05/24 10:09:54;;;;;;;27.30;25.53;;;;;;;26.38;58.26;100639.59;5078914;28;20048;-83
2022/05/24 10:12:38;;;;;;;28.80;26.63;;;;;;;25.35;62.95;100640.53;5070235;28;20504;-82
2022/05/24 10:15:16;;;;;;;28.80;26.70;;;;;;;24.50;61.19;100644.72;5081248;28;20125;-85
2022/05/24 10:24:11;;;;;;;41.10;38.15;;;;;;;24.20;68.94;100644.94;5072676;28;20400;-83
2022/05/24 10:26:56;;;;;;;77.32;69.18;;;;;;;24.30;65.25;100643.16;5073501;28;20052;-83
2022/05/24 10:29:35;;;;;;;170.85;152.57;;;;;;;24.10;63.04;100641.63;5088908;28;20091;-82
2022/05/24 10:38:19;;;;;;;1212.45;702.00;;;;;;;24.47;60.07;100651.56;5092814;28;20078;-84
2022/05/24 10:41:06;;;;;;;194.55;137.15;;;;;;;24.01;64.03;100657.78;5075670;28;20049;-83
2022/05/24 10:47:39;;;;;;;292.08;185.68;;;;;;;24.06;57.81;100655.00;5032055;28;20527;-84
2022/05/24 10:50:24;;;;;;;177.95;121.85;;;;;;;23.84;56.63;100652.91;5047863;28;20049;-82
2022/05/24 10:56:38;;;;;;;121.55;86.85;;;;;;;24.16;59.54;100651.28;5078197;28;20063;-87
2022/05/24 10:59:33;;;;;;;122.82;79.82;;;;;;;23.89;60.73;100652.81;5075863;28;20045;-88
2022/05/24 11:02:14;;;;;;;42.42;38.45;;;;;;;23.71;62.29;100659.09;5093241;22;20600;-85
2022/05/24 11:05:20;;;;;;;249.02;167.98;;;;;;;23.25;66.21;100660.53;5100832;28;20055;-86
2022/05/24 11:08:27;;;;;;;67.75;60.30;;;;;;;23.19;74.54;100675.25;5099354;28;20138;-86
2022/05/24 11:11:01;;;;;;;60.75;54.72;;;;;;;23.47;76.75;100676.22;5097045;28;20048;-87
2022/05/24 11:13:54;;;;;;;50.22;45.97;;;;;;;23.67;78.66;100683.25;5091119;28;20143;-87
2022/05/24 11:16:39;;;;;;;29.80;27.90;;;;;;;23.79;73.00;100690.97;5087573;28;20114;-86
2022/05/24 11:26:34;;;;;;;47.30;42.85;;;;;;;23.22;83.19;100690.13;5097364;28;20493;-86
2022/05/24 11:29:19;;;;;;;37.40;34.08;;;;;;;23.16;83.99;100694.78;5098564;28;20486;-86
2022/05/24 11:32:29;;;;;;;36.25;33.35;;;;;;;23.37;82.94;100689.13;5097225;28;20043;-87
2022/05/24 11:35:27;;;;;;;51.58;47.28;;;;;;;23.52;81.87;100672.63;5091465;28;20059;-86
2022/05/24 11:42:07;;;;;;;28.52;26.80;;;;;;;22.82;81.18;100598.25;5089903;28;20030;-87
2022/05/24 11:44:48;;;;;;;30.00;28.05;;;;;;;22.76;85.89;100587.78;5097704;28;20058;-86
2022/05/24 11:47:46;;;;;;;34.03;31.58;;;;;;;22.45;79.47;100596.28;5091426;28;20045;-86
2022/05/24 11:50:39;;;;;;;29.23;27.42;;;;;;;22.85;81.66;100594.97;5062241;28;20486;-87
2022/05/24 11:53:19;;;;;;;29.27;27.55;;;;;;;23.13;75.44;100581.59;5097696;28;20131;-87
2022/05/24 11:56:13;;;;;;;30.70;28.60;;;;;;;22.69;79.76;100595.44;5096416;28;20411;-86
2022/05/24 11:58:56;;;;;;;166.45;93.43;;;;;;;22.88;88.07;100627.97;5094677;28;20447;-87
2022/05/24 12:01:47;;;;;;;210.65;127.72;;;;;;;22.81;83.77;100647.25;5093422;28;20055;-86
2022/05/24 12:07:56;;;;;;;137.50;91.80;;;;;;;22.70;89.24;100613.31;5092862;28;20205;-87
2022/05/24 12:10:50;;;;;;;82.47;61.42;;;;;;;23.30;86.30;100568.34;5081962;28;20135;-87
2022/05/24 12:13:33;;;;;;;33.88;31.48;;;;;;;23.20;76.12;100537.88;5095403;28;20071;-87
2022/05/24 12:16:24;;;;;;;;;;;;;;;23.25;72.58;100518.84;5079201;28;20040;-88
2022/05/24 12:19:09;;;;;;;28.42;26.20;;;;;;;23.24;74.07;100484.75;5076959;28;19924;-88
2022/05/24 12:21:56;;;;;;;27.55;25.83;;;;;;;23.14;76.98;100493.81;5091374;28;20048;-84
2022/05/24 12:24:34;;;;;;;29.35;27.45;;;;;;;23.25;78.20;100530.50;5093262;28;20044;-85
2022/05/24 12:27:36;;;;;;;31.98;30.08;;;;;;;23.50;89.29;100550.94;5093485;28;20047;-86
2022/05/24 12:30:20;;;;;;;59.60;46.53;;;;;;;22.60;100.00;100563.63;5080339;28;20037;-82
2022/05/24 12:32:52;;;;;;;102.35;66.95;;;;;;;22.70;98.48;100576.22;5078152;28;20080;-83
2022/05/24 12:35:24;;;;;;;70.95;55.70;;;;;;;23.04;98.35;100586.88;5087353;28;20063;-84
2022/05/24 12:38:05;;;;;;;34.78;32.42;;;;;;;22.94;95.08;100594.31;5083911;28;20044;-84
2022/05/24 12:40:37;;;;;;;52.20;46.90;;;;;;;23.64;85.72;100612.56;5094094;28;20122;-82
2022/05/24 12:43:23;;;;;;;82.57;69.53;;;;;;;23.64;89.38;100626.91;5087980;28;20047;-83
2022/05/24 12:45:55;;;;;;;230.48;169.98;;;;;;;24.11;84.10;100614.19;5093687;28;20052;-84
2022/05/24 12:48:39;;;;;;;29.52;27.63;;;;;;;22.91;82.13;100608.44;5091133;28;20105;-84
2022/05/24 12:51:12;;;;;;;48.80;43.88;;;;;;;23.12;83.23;100614.38;5079524;28;20391;-84
2022/05/24 12:53:47;;;;;;;45.00;41.38;;;;;;;22.71;98.32;100618.41;5094859;28;20048;-83